sensor_id;sensor_type;location;lat;lon;timestamp;P1;durP1;ratioP1;P2;durP2;ratioP2
35518;SDS011;21627;48.216;16.482;2024-03-06T00:00:12;46.40;;;24.23;;
35518;SDS011;21627;48.216;16.482;2024-03-06T00:02:40;40.40;;;22.40;;
35518;SDS011;21627;48.216;16.482;2024-03-06T00:05:07;42.53;;;23.23;;
35518;SDS011;21627;48.216;16.482;2024-03-06T00:07:35;47.53;;;25.08;;
35518;SDS011;21627;48.216;16.482;2024-03-06T00:10:02;41.15;;;24.23;;
35518;SDS011;21627;48.216;16.482;2024-03-06T00:12:31;47.40;;;24.63;;
35518;SDS011;21627;48.216;16.482;2024-03-06T00:14:59;44.75;;;24.63;;
35518;SDS011;21627;48.216;16.482;2024-03-06T00:17:26;46.92;;;25.30;;
35518;SDS011;21627;48.216;16.482;2024-03-06T00:19:53;50.10;;;25.63;;
35518;SDS011;21627;48.216;16.482;2024-03-06T00:22:21;50.45;;;26.13;;
35518;SDS011;21627;48.216;16.482;2024-03-06T00:24:49;45.92;;;26.38;;
35518;SDS011;21627;48.216;16.482;2024-03-06T00:27:18;53.45;;;27.35;;
35518;SDS011;21627;48.216;16.482;2024-03-06T00:29:45;50.13;;;26.85;;
35518;SDS011;21627;48.216;16.482;2024-03-06T00:32:12;51.58;;;27.20;;
35518;SDS011;21627;48.216;16.482;2024-03-06T00:34:39;54.35;;;27.00;;
35518;SDS011;21627;48.216;16.482;2024-03-06T00:37:07;49.92;;;26.30;;
35518;SDS011;21627;48.216;16.482;2024-03-06T00:39:34;51.03;;;26.63;;
35518;SDS011;21627;48.216;16.482;2024-03-06T00:42:02;53.97;;;27.17;;
35518;SDS011;21627;48.216;16.482;2024-03-06T00:44:29;56.30;;;29.08;;
35518;SDS011;21627;48.216;16.482;2024-03-06T00:46:56;56.13;;;29.45;;
35518;SDS011;21627;48.216;16.482;2024-03-06T00:49:24;55.30;;;28.38;;
35518;SDS011;21627;48.216;16.482;2024-03-06T00:51:51;56.17;;;29.30;;
35518;SDS011;21627;48.216;16.482;2024-03-06T00:54:18;55.20;;;28.83;;
35518;SDS011;21627;48.216;16.482;2024-03-06T00:56:45;64.22;;;29.42;;
35518;SDS011;21627;48.216;16.482;2024-03-06T00:59:12;58.38;;;29.17;;
35518;SDS011;21627;48.216;16.482;2024-03-06T01:01:39;55.08;;;28.75;;
35518;SDS011;21627;48.216;16.482;2024-03-06T01:04:07;51.30;;;27.90;;
35518;SDS011;21627;48.216;16.482;2024-03-06T01:06:34;55.15;;;28.95;;
35518;SDS011;21627;48.216;16.482;2024-03-06T01:09:02;56.13;;;29.13;;
35518;SDS011;21627;48.216;16.482;2024-03-06T01:11:29;53.60;;;28.20;;
35518;SDS011;21627;48.216;16.482;2024-03-06T01:13:56;55.00;;;29.00;;
35518;SDS011;21627;48.216;16.482;2024-03-06T01:16:23;56.83;;;29.88;;
35518;SDS011;21627;48.216;16.482;2024-03-06T01:18:50;56.17;;;29.00;;
35518;SDS011;21627;48.216;16.482;2024-03-06T01:21:17;53.63;;;27.38;;
35518;SDS011;21627;48.216;16.482;2024-03-06T01:23:45;60.10;;;29.83;;
35518;SDS011;21627;48.216;16.482;2024-03-06T01:26:12;56.28;;;29.30;;
35518;SDS011;21627;48.216;16.482;2024-03-06T01:28:39;47.80;;;27.10;;
35518;SDS011;21627;48.216;16.482;2024-03-06T01:31:06;49.28;;;27.85;;
35518;SDS011;21627;48.216;16.482;2024-03-06T01:33:34;54.75;;;28.83;;
35518;SDS011;21627;48.216;16.482;2024-03-06T01:36:01;48.90;;;26.95;;
35518;SDS011;21627;48.216;16.482;2024-03-06T01:38:28;51.72;;;28.40;;
35518;SDS011;21627;48.216;16.482;2024-03-06T01:40:55;59.72;;;30.45;;
35518;SDS011;21627;48.216;16.482;2024-03-06T01:43:23;60.58;;;29.00;;
35518;SDS011;21627;48.216;16.482;2024-03-06T01:45:52;66.53;;;30.98;;
35518;SDS011;21627;48.216;16.482;2024-03-06T01:48:21;53.70;;;27.65;;
35518;SDS011;21627;48.216;16.482;2024-03-06T01:50:57;61.90;;;31.98;;
35518;SDS011;21627;48.216;16.482;2024-03-06T01:53:29;55.67;;;30.55;;
35518;SDS011;21627;48.216;16.482;2024-03-06T01:55:58;52.78;;;29.05;;
35518;SDS011;21627;48.216;16.482;2024-03-06T01:58:26;57.50;;;29.52;;
35518;SDS011;21627;48.216;16.482;2024-03-06T02:00:54;58.15;;;31.27;;
35518;SDS011;21627;48.216;16.482;2024-03-06T02:03:21;61.63;;;29.25;;
35518;SDS011;21627;48.216;16.482;2024-03-06T02:05:50;62.28;;;30.55;;
35518;SDS011;21627;48.216;16.482;2024-03-06T02:08:19;66.45;;;31.83;;
35518;SDS011;21627;48.216;16.482;2024-03-06T02:10:46;60.97;;;29.88;;
35518;SDS011;21627;48.216;16.482;2024-03-06T02:13:14;59.72;;;28.83;;
35518;SDS011;21627;48.216;16.482;2024-03-06T02:15:41;60.70;;;31.05;;
35518;SDS011;21627;48.216;16.482;2024-03-06T02:18:14;54.35;;;29.00;;
35518;SDS011;21627;48.216;16.482;2024-03-06T02:20:41;58.08;;;29.63;;
35518;SDS011;21627;48.216;16.482;2024-03-06T02:23:08;60.42;;;30.52;;
35518;SDS011;21627;48.216;16.482;2024-03-06T02:25:35;60.78;;;31.67;;
35518;SDS011;21627;48.216;16.482;2024-03-06T02:28:03;62.55;;;31.63;;
35518;SDS011;21627;48.216;16.482;2024-03-06T02:30:32;59.58;;;31.88;;
35518;SDS011;21627;48.216;16.482;2024-03-06T02:33:04;60.03;;;30.83;;
35518;SDS011;21627;48.216;16.482;2024-03-06T02:35:33;59.53;;;30.65;;
35518;SDS011;21627;48.216;16.482;2024-03-06T02:38:03;62.63;;;32.03;;
35518;SDS011;21627;48.216;16.482;2024-03-06T02:40:33;62.20;;;31.35;;
35518;SDS011;21627;48.216;16.482;2024-03-06T02:43:01;62.08;;;31.23;;
35518;SDS011;21627;48.216;16.482;2024-03-06T02:45:28;60.92;;;30.27;;
35518;SDS011;21627;48.216;16.482;2024-03-06T02:47:56;64.55;;;32.90;;
35518;SDS011;21627;48.216;16.482;2024-03-06T02:50:23;61.80;;;31.45;;
35518;SDS011;21627;48.216;16.482;2024-03-06T02:52:50;66.07;;;30.85;;
35518;SDS011;21627;48.216;16.482;2024-03-06T02:55:19;67.35;;;33.25;;
35518;SDS011;21627;48.216;16.482;2024-03-06T02:57:49;65.72;;;31.50;;
35518;SDS011;21627;48.216;16.482;2024-03-06T03:00:16;72.63;;;34.72;;
35518;SDS011;21627;48.216;16.482;2024-03-06T03:02:43;64.38;;;33.47;;
35518;SDS011;21627;48.216;16.482;2024-03-06T03:05:11;67.80;;;33.78;;
35518;SDS011;21627;48.216;16.482;2024-03-06T03:07:38;60.78;;;32.03;;
35518;SDS011;21627;48.216;16.482;2024-03-06T03:10:05;62.20;;;33.00;;
35518;SDS011;21627;48.216;16.482;2024-03-06T03:12:33;68.22;;;32.72;;
35518;SDS011;21627;48.216;16.482;2024-03-06T03:15:00;65.38;;;32.95;;
35518;SDS011;21627;48.216;16.482;2024-03-06T03:17:27;69.72;;;33.53;;
35518;SDS011;21627;48.216;16.482;2024-03-06T03:19:55;62.33;;;31.35;;
35518;SDS011;21627;48.216;16.482;2024-03-06T03:22:22;60.55;;;32.33;;
35518;SDS011;21627;48.216;16.482;2024-03-06T03:24:49;68.35;;;33.45;;
35518;SDS011;21627;48.216;16.482;2024-03-06T03:27:16;67.30;;;33.75;;
35518;SDS011;21627;48.216;16.482;2024-03-06T03:29:44;70.03;;;34.05;;
35518;SDS011;21627;48.216;16.482;2024-03-06T03:32:11;69.72;;;35.25;;
35518;SDS011;21627;48.216;16.482;2024-03-06T03:34:38;70.57;;;34.50;;
35518;SDS011;21627;48.216;16.482;2024-03-06T03:37:06;69.15;;;34.97;;
35518;SDS011;21627;48.216;16.482;2024-03-06T03:39:33;68.95;;;34.13;;
35518;SDS011;21627;48.216;16.482;2024-03-06T03:42:00;67.88;;;34.17;;
35518;SDS011;21627;48.216;16.482;2024-03-06T03:44:27;71.60;;;34.58;;
35518;SDS011;21627;48.216;16.482;2024-03-06T03:46:54;72.35;;;34.83;;
35518;SDS011;21627;48.216;16.482;2024-03-06T03:49:21;73.00;;;36.22;;
35518;SDS011;21627;48.216;16.482;2024-03-06T03:51:48;77.85;;;35.35;;
35518;SDS011;21627;48.216;16.482;2024-03-06T03:54:15;75.88;;;35.17;;
35518;SDS011;21627;48.216;16.482;2024-03-06T03:56:42;77.53;;;35.30;;
35518;SDS011;21627;48.216;16.482;2024-03-06T03:59:09;76.38;;;34.30;;
35518;SDS011;21627;48.216;16.482;2024-03-06T04:01:37;75.80;;;36.25;;
35518;SDS011;21627;48.216;16.482;2024-03-06T04:04:04;73.13;;;35.83;;
35518;SDS011;21627;48.216;16.482;2024-03-06T04:06:33;68.45;;;34.38;;
35518;SDS011;21627;48.216;16.482;2024-03-06T04:09:00;73.47;;;33.60;;
35518;SDS011;21627;48.216;16.482;2024-03-06T04:11:28;68.75;;;34.30;;
35518;SDS011;21627;48.216;16.482;2024-03-06T04:13:56;72.45;;;34.83;;
35518;SDS011;21627;48.216;16.482;2024-03-06T04:16:23;78.90;;;35.17;;
35518;SDS011;21627;48.216;16.482;2024-03-06T04:18:50;73.47;;;36.03;;
35518;SDS011;21627;48.216;16.482;2024-03-06T04:21:18;73.72;;;33.90;;
35518;SDS011;21627;48.216;16.482;2024-03-06T04:23:45;69.10;;;35.47;;
35518;SDS011;21627;48.216;16.482;2024-03-06T04:26:12;69.40;;;34.63;;
35518;SDS011;21627;48.216;16.482;2024-03-06T04:28:40;71.47;;;36.00;;
35518;SDS011;21627;48.216;16.482;2024-03-06T04:31:07;74.57;;;36.10;;
35518;SDS011;21627;48.216;16.482;2024-03-06T04:33:35;76.00;;;35.38;;
35518;SDS011;21627;48.216;16.482;2024-03-06T04:36:03;73.53;;;35.20;;
35518;SDS011;21627;48.216;16.482;2024-03-06T04:38:34;69.68;;;34.75;;
35518;SDS011;21627;48.216;16.482;2024-03-06T04:41:01;77.78;;;35.58;;
35518;SDS011;21627;48.216;16.482;2024-03-06T04:43:31;76.97;;;34.45;;
35518;SDS011;21627;48.216;16.482;2024-03-06T04:45:58;77.82;;;33.80;;
35518;SDS011;21627;48.216;16.482;2024-03-06T04:48:26;65.30;;;33.10;;
35518;SDS011;21627;48.216;16.482;2024-03-06T04:50:53;81.10;;;34.72;;
35518;SDS011;21627;48.216;16.482;2024-03-06T04:53:20;70.50;;;32.45;;
35518;SDS011;21627;48.216;16.482;2024-03-06T04:55:47;66.63;;;33.30;;
35518;SDS011;21627;48.216;16.482;2024-03-06T04:58:14;70.20;;;34.92;;
35518;SDS011;21627;48.216;16.482;2024-03-06T05:00:41;69.18;;;32.70;;
35518;SDS011;21627;48.216;16.482;2024-03-06T05:03:08;64.53;;;32.95;;
35518;SDS011;21627;48.216;16.482;2024-03-06T05:05:53;69.95;;;34.17;;
35518;SDS011;21627;48.216;16.482;2024-03-06T05:08:38;62.55;;;30.95;;
35518;SDS011;21627;48.216;16.482;2024-03-06T05:11:22;64.53;;;32.47;;
35518;SDS011;21627;48.216;16.482;2024-03-06T05:14:06;67.25;;;31.98;;
35518;SDS011;21627;48.216;16.482;2024-03-06T05:16:51;66.85;;;33.35;;
35518;SDS011;21627;48.216;16.482;2024-03-06T05:19:36;67.57;;;33.20;;
35518;SDS011;21627;48.216;16.482;2024-03-06T05:22:21;65.95;;;31.60;;
35518;SDS011;21627;48.216;16.482;2024-03-06T05:25:06;63.30;;;32.15;;
35518;SDS011;21627;48.216;16.482;2024-03-06T05:27:51;65.82;;;32.40;;
35518;SDS011;21627;48.216;16.482;2024-03-06T05:30:35;60.75;;;31.38;;
35518;SDS011;21627;48.216;16.482;2024-03-06T05:33:20;61.78;;;29.65;;
35518;SDS011;21627;48.216;16.482;2024-03-06T05:36:06;57.83;;;29.50;;
35518;SDS011;21627;48.216;16.482;2024-03-06T05:38:50;63.20;;;31.20;;
35518;SDS011;21627;48.216;16.482;2024-03-06T05:41:34;62.05;;;31.27;;
35518;SDS011;21627;48.216;16.482;2024-03-06T05:44:19;60.08;;;29.77;;
35518;SDS011;21627;48.216;16.482;2024-03-06T05:47:03;59.15;;;28.60;;
35518;SDS011;21627;48.216;16.482;2024-03-06T05:49:49;48.13;;;26.67;;
35518;SDS011;21627;48.216;16.482;2024-03-06T05:52:33;60.25;;;30.02;;
35518;SDS011;21627;48.216;16.482;2024-03-06T05:55:18;52.67;;;28.55;;
35518;SDS011;21627;48.216;16.482;2024-03-06T05:58:03;62.25;;;28.65;;
35518;SDS011;21627;48.216;16.482;2024-03-06T06:00:37;62.17;;;28.27;;
35518;SDS011;21627;48.216;16.482;2024-03-06T06:03:07;54.15;;;28.05;;
35518;SDS011;21627;48.216;16.482;2024-03-06T06:05:38;55.08;;;28.38;;
35518;SDS011;21627;48.216;16.482;2024-03-06T06:08:06;49.28;;;26.90;;
35518;SDS011;21627;48.216;16.482;2024-03-06T06:10:33;58.70;;;28.05;;
35518;SDS011;21627;48.216;16.482;2024-03-06T06:13:01;54.20;;;28.38;;
35518;SDS011;21627;48.216;16.482;2024-03-06T06:15:31;51.58;;;27.13;;
35518;SDS011;21627;48.216;16.482;2024-03-06T06:17:58;55.10;;;26.85;;
35518;SDS011;21627;48.216;16.482;2024-03-06T06:20:26;51.63;;;27.02;;
35518;SDS011;21627;48.216;16.482;2024-03-06T06:22:53;49.83;;;26.98;;
35518;SDS011;21627;48.216;16.482;2024-03-06T06:25:21;52.58;;;26.23;;
35518;SDS011;21627;48.216;16.482;2024-03-06T06:27:48;53.25;;;26.52;;
35518;SDS011;21627;48.216;16.482;2024-03-06T06:30:16;51.63;;;25.00;;
35518;SDS011;21627;48.216;16.482;2024-03-06T06:32:43;50.22;;;25.00;;
35518;SDS011;21627;48.216;16.482;2024-03-06T06:35:11;54.60;;;26.17;;
35518;SDS011;21627;48.216;16.482;2024-03-06T06:37:40;51.35;;;25.75;;
35518;SDS011;21627;48.216;16.482;2024-03-06T06:40:08;46.92;;;24.55;;
35518;SDS011;21627;48.216;16.482;2024-03-06T06:42:36;48.17;;;23.70;;
35518;SDS011;21627;48.216;16.482;2024-03-06T06:45:04;49.97;;;24.58;;
35518;SDS011;21627;48.216;16.482;2024-03-06T06:47:33;50.65;;;24.30;;
35518;SDS011;21627;48.216;16.482;2024-03-06T06:50:01;47.63;;;23.90;;
35518;SDS011;21627;48.216;16.482;2024-03-06T06:52:32;47.20;;;23.90;;
35518;SDS011;21627;48.216;16.482;2024-03-06T06:55:00;43.95;;;23.35;;
35518;SDS011;21627;48.216;16.482;2024-03-06T06:57:28;50.83;;;25.05;;
35518;SDS011;21627;48.216;16.482;2024-03-06T06:59:56;48.33;;;23.83;;
35518;SDS011;21627;48.216;16.482;2024-03-06T07:02:23;44.35;;;23.38;;
35518;SDS011;21627;48.216;16.482;2024-03-06T07:04:51;48.72;;;23.95;;
35518;SDS011;21627;48.216;16.482;2024-03-06T07:07:19;55.42;;;26.02;;
35518;SDS011;21627;48.216;16.482;2024-03-06T07:09:46;46.78;;;23.98;;
35518;SDS011;21627;48.216;16.482;2024-03-06T07:12:13;49.10;;;24.00;;
35518;SDS011;21627;48.216;16.482;2024-03-06T07:14:40;52.15;;;24.80;;
35518;SDS011;21627;48.216;16.482;2024-03-06T07:17:08;48.13;;;24.10;;
35518;SDS011;21627;48.216;16.482;2024-03-06T07:19:35;44.88;;;24.67;;
35518;SDS011;21627;48.216;16.482;2024-03-06T07:22:03;46.42;;;24.08;;
35518;SDS011;21627;48.216;16.482;2024-03-06T07:24:30;48.92;;;23.45;;
35518;SDS011;21627;48.216;16.482;2024-03-06T07:26:57;49.45;;;24.02;;
35518;SDS011;21627;48.216;16.482;2024-03-06T07:29:24;48.60;;;25.08;;
35518;SDS011;21627;48.216;16.482;2024-03-06T07:31:51;49.85;;;24.45;;
35518;SDS011;21627;48.216;16.482;2024-03-06T07:34:19;49.95;;;26.50;;
35518;SDS011;21627;48.216;16.482;2024-03-06T07:36:48;48.35;;;24.85;;
35518;SDS011;21627;48.216;16.482;2024-03-06T07:39:15;42.53;;;23.50;;
35518;SDS011;21627;48.216;16.482;2024-03-06T07:41:43;52.05;;;23.58;;
35518;SDS011;21627;48.216;16.482;2024-03-06T07:44:10;46.40;;;24.77;;
35518;SDS011;21627;48.216;16.482;2024-03-06T07:46:37;48.45;;;25.65;;
35518;SDS011;21627;48.216;16.482;2024-03-06T07:49:04;44.03;;;24.38;;
35518;SDS011;21627;48.216;16.482;2024-03-06T07:51:32;48.00;;;23.75;;
35518;SDS011;21627;48.216;16.482;2024-03-06T07:53:59;46.28;;;25.25;;
35518;SDS011;21627;48.216;16.482;2024-03-06T07:56:27;47.40;;;25.58;;
35518;SDS011;21627;48.216;16.482;2024-03-06T07:58:55;41.63;;;23.27;;
35518;SDS011;21627;48.216;16.482;2024-03-06T08:01:22;46.08;;;24.50;;
35518;SDS011;21627;48.216;16.482;2024-03-06T08:03:50;47.90;;;24.23;;
35518;SDS011;21627;48.216;16.482;2024-03-06T08:06:18;42.47;;;23.95;;
35518;SDS011;21627;48.216;16.482;2024-03-06T08:08:45;47.70;;;24.13;;
35518;SDS011;21627;48.216;16.482;2024-03-06T08:11:12;47.13;;;24.33;;
35518;SDS011;21627;48.216;16.482;2024-03-06T08:13:41;42.42;;;23.55;;
35518;SDS011;21627;48.216;16.482;2024-03-06T08:16:09;43.00;;;23.70;;
35518;SDS011;21627;48.216;16.482;2024-03-06T08:18:37;48.97;;;24.63;;
35518;SDS011;21627;48.216;16.482;2024-03-06T08:21:04;44.88;;;23.55;;
35518;SDS011;21627;48.216;16.482;2024-03-06T08:23:32;46.58;;;24.42;;
35518;SDS011;21627;48.216;16.482;2024-03-06T08:26:00;46.50;;;24.65;;
35518;SDS011;21627;48.216;16.482;2024-03-06T08:28:27;43.85;;;24.20;;
35518;SDS011;21627;48.216;16.482;2024-03-06T08:30:54;42.22;;;23.85;;
35518;SDS011;21627;48.216;16.482;2024-03-06T08:33:21;49.70;;;23.50;;
35518;SDS011;21627;48.216;16.482;2024-03-06T08:35:49;46.00;;;24.58;;
35518;SDS011;21627;48.216;16.482;2024-03-06T08:38:17;38.58;;;23.15;;
35518;SDS011;21627;48.216;16.482;2024-03-06T08:40:44;47.42;;;24.75;;
35518;SDS011;21627;48.216;16.482;2024-03-06T08:43:15;43.08;;;24.23;;
35518;SDS011;21627;48.216;16.482;2024-03-06T08:45:42;45.15;;;23.40;;
35518;SDS011;21627;48.216;16.482;2024-03-06T08:48:10;53.55;;;25.98;;
35518;SDS011;21627;48.216;16.482;2024-03-06T08:50:38;47.03;;;26.55;;
35518;SDS011;21627;48.216;16.482;2024-03-06T08:53:05;56.22;;;26.25;;
35518;SDS011;21627;48.216;16.482;2024-03-06T08:55:33;50.53;;;25.67;;
35518;SDS011;21627;48.216;16.482;2024-03-06T08:58:00;48.70;;;25.95;;
35518;SDS011;21627;48.216;16.482;2024-03-06T09:00:28;49.05;;;25.98;;
35518;SDS011;21627;48.216;16.482;2024-03-06T09:02:56;45.30;;;25.30;;
35518;SDS011;21627;48.216;16.482;2024-03-06T09:05:23;53.50;;;25.05;;
35518;SDS011;21627;48.216;16.482;2024-03-06T09:07:50;45.30;;;25.45;;
35518;SDS011;21627;48.216;16.482;2024-03-06T09:10:18;45.03;;;24.92;;
35518;SDS011;21627;48.216;16.482;2024-03-06T09:12:48;40.90;;;23.13;;
35518;SDS011;21627;48.216;16.482;2024-03-06T09:15:15;44.15;;;24.45;;
35518;SDS011;21627;48.216;16.482;2024-03-06T09:17:42;43.65;;;25.25;;
35518;SDS011;21627;48.216;16.482;2024-03-06T09:20:11;45.72;;;23.35;;
35518;SDS011;21627;48.216;16.482;2024-03-06T09:22:41;45.30;;;22.55;;
35518;SDS011;21627;48.216;16.482;2024-03-06T09:25:09;42.08;;;22.45;;
35518;SDS011;21627;48.216;16.482;2024-03-06T09:27:41;37.85;;;21.30;;
35518;SDS011;21627;48.216;16.482;2024-03-06T09:30:09;40.63;;;22.48;;
35518;SDS011;21627;48.216;16.482;2024-03-06T09:32:39;37.25;;;20.80;;
35518;SDS011;21627;48.216;16.482;2024-03-06T09:35:08;34.50;;;20.30;;
35518;SDS011;21627;48.216;16.482;2024-03-06T09:37:35;32.28;;;19.38;;
35518;SDS011;21627;48.216;16.482;2024-03-06T09:40:03;38.85;;;20.77;;
35518;SDS011;21627;48.216;16.482;2024-03-06T09:42:31;35.17;;;19.40;;
35518;SDS011;21627;48.216;16.482;2024-03-06T09:44:59;38.60;;;18.35;;
35518;SDS011;21627;48.216;16.482;2024-03-06T09:47:28;32.60;;;18.40;;
35518;SDS011;21627;48.216;16.482;2024-03-06T09:50:02;34.25;;;19.58;;
35518;SDS011;21627;48.216;16.482;2024-03-06T09:52:32;31.30;;;18.70;;
35518;SDS011;21627;48.216;16.482;2024-03-06T09:55:01;30.60;;;19.20;;
35518;SDS011;21627;48.216;16.482;2024-03-06T09:57:30;32.72;;;17.45;;
35518;SDS011;21627;48.216;16.482;2024-03-06T09:59:57;36.10;;;19.23;;
35518;SDS011;21627;48.216;16.482;2024-03-06T10:02:28;36.67;;;17.98;;
35518;SDS011;21627;48.216;16.482;2024-03-06T10:05:20;35.90;;;18.45;;
35518;SDS011;21627;48.216;16.482;2024-03-06T10:07:52;33.55;;;17.98;;
35518;SDS011;21627;48.216;16.482;2024-03-06T10:10:20;33.38;;;17.77;;
35518;SDS011;21627;48.216;16.482;2024-03-06T10:12:50;34.15;;;17.20;;
35518;SDS011;21627;48.216;16.482;2024-03-06T10:15:17;25.25;;;16.30;;
35518;SDS011;21627;48.216;16.482;2024-03-06T10:17:45;28.50;;;15.75;;
35518;SDS011;21627;48.216;16.482;2024-03-06T10:20:20;25.83;;;17.10;;
35518;SDS011;21627;48.216;16.482;2024-03-06T10:22:50;33.20;;;16.17;;
35518;SDS011;21627;48.216;16.482;2024-03-06T10:25:24;29.75;;;17.08;;
35518;SDS011;21627;48.216;16.482;2024-03-06T10:28:03;33.20;;;16.52;;
35518;SDS011;21627;48.216;16.482;2024-03-06T10:30:41;29.15;;;17.52;;
35518;SDS011;21627;48.216;16.482;2024-03-06T10:33:09;32.47;;;17.98;;
35518;SDS011;21627;48.216;16.482;2024-03-06T10:35:42;34.40;;;16.90;;
35518;SDS011;21627;48.216;16.482;2024-03-06T10:38:11;27.77;;;16.33;;
35518;SDS011;21627;48.216;16.482;2024-03-06T10:40:40;26.40;;;15.75;;
35518;SDS011;21627;48.216;16.482;2024-03-06T10:43:09;28.60;;;15.13;;
35518;SDS011;21627;48.216;16.482;2024-03-06T10:48:15;28.13;;;16.75;;
35518;SDS011;21627;48.216;16.482;2024-03-06T10:50:46;32.90;;;16.88;;
35518;SDS011;21627;48.216;16.482;2024-03-06T10:53:16;31.05;;;17.98;;
35518;SDS011;21627;48.216;16.482;2024-03-06T10:55:49;30.52;;;17.20;;
35518;SDS011;21627;48.216;16.482;2024-03-06T10:58:17;30.08;;;18.63;;
35518;SDS011;21627;48.216;16.482;2024-03-06T11:00:47;32.45;;;17.27;;
35518;SDS011;21627;48.216;16.482;2024-03-06T11:03:16;31.52;;;17.15;;
35518;SDS011;21627;48.216;16.482;2024-03-06T11:05:44;29.02;;;18.15;;
35518;SDS011;21627;48.216;16.482;2024-03-06T11:08:14;31.15;;;17.70;;
35518;SDS011;21627;48.216;16.482;2024-03-06T11:10:43;30.20;;;18.05;;
35518;SDS011;21627;48.216;16.482;2024-03-06T11:15:58;31.50;;;17.67;;
35518;SDS011;21627;48.216;16.482;2024-03-06T11:23:31;31.02;;;18.45;;
35518;SDS011;21627;48.216;16.482;2024-03-06T11:26:01;31.25;;;18.70;;
35518;SDS011;21627;48.216;16.482;2024-03-06T11:28:35;33.88;;;18.55;;
35518;SDS011;21627;48.216;16.482;2024-03-06T11:31:07;33.78;;;18.08;;
35518;SDS011;21627;48.216;16.482;2024-03-06T11:33:42;34.88;;;18.88;;
35518;SDS011;21627;48.216;16.482;2024-03-06T11:36:19;32.53;;;18.80;;
35518;SDS011;21627;48.216;16.482;2024-03-06T11:44:17;31.35;;;18.85;;
35518;SDS011;21627;48.216;16.482;2024-03-06T11:46:56;31.33;;;18.98;;
35518;SDS011;21627;48.216;16.482;2024-03-06T11:49:25;34.28;;;18.60;;
35518;SDS011;21627;48.216;16.482;2024-03-06T11:51:56;33.70;;;19.15;;
35518;SDS011;21627;48.216;16.482;2024-03-06T11:54:34;31.73;;;18.08;;
35518;SDS011;21627;48.216;16.482;2024-03-06T11:57:02;31.17;;;17.80;;
35518;SDS011;21627;48.216;16.482;2024-03-06T11:59:33;27.52;;;18.20;;
35518;SDS011;21627;48.216;16.482;2024-03-06T12:02:05;32.72;;;18.05;;
35518;SDS011;21627;48.216;16.482;2024-03-06T12:04:34;29.90;;;18.38;;
35518;SDS011;21627;48.216;16.482;2024-03-06T12:07:06;33.00;;;18.23;;
35518;SDS011;21627;48.216;16.482;2024-03-06T12:09:35;29.85;;;18.83;;
35518;SDS011;21627;48.216;16.482;2024-03-06T12:12:09;29.20;;;18.77;;
35518;SDS011;21627;48.216;16.482;2024-03-06T12:14:37;30.02;;;18.42;;
35518;SDS011;21627;48.216;16.482;2024-03-06T12:17:12;33.63;;;18.60;;
35518;SDS011;21627;48.216;16.482;2024-03-06T12:19:43;30.75;;;18.55;;
35518;SDS011;21627;48.216;16.482;2024-03-06T12:22:12;37.17;;;20.08;;
35518;SDS011;21627;48.216;16.482;2024-03-06T12:24:41;31.02;;;18.60;;
35518;SDS011;21627;48.216;16.482;2024-03-06T12:27:09;33.60;;;19.58;;
35518;SDS011;21627;48.216;16.482;2024-03-06T12:29:36;30.38;;;18.65;;
35518;SDS011;21627;48.216;16.482;2024-03-06T12:32:04;31.50;;;18.15;;
35518;SDS011;21627;48.216;16.482;2024-03-06T12:34:42;35.78;;;19.98;;
35518;SDS011;21627;48.216;16.482;2024-03-06T12:37:09;29.60;;;18.75;;
35518;SDS011;21627;48.216;16.482;2024-03-06T12:39:38;27.08;;;17.45;;
35518;SDS011;21627;48.216;16.482;2024-03-06T12:42:09;29.00;;;17.30;;
35518;SDS011;21627;48.216;16.482;2024-03-06T12:44:38;34.55;;;18.58;;
35518;SDS011;21627;48.216;16.482;2024-03-06T12:47:07;28.15;;;17.08;;
35518;SDS011;21627;48.216;16.482;2024-03-06T12:49:34;28.38;;;18.08;;
35518;SDS011;21627;48.216;16.482;2024-03-06T12:52:01;31.98;;;17.92;;
35518;SDS011;21627;48.216;16.482;2024-03-06T12:54:31;32.13;;;18.38;;
35518;SDS011;21627;48.216;16.482;2024-03-06T12:56:58;28.80;;;17.80;;
35518;SDS011;21627;48.216;16.482;2024-03-06T12:59:26;36.40;;;19.20;;
35518;SDS011;21627;48.216;16.482;2024-03-06T13:01:53;31.83;;;17.95;;
35518;SDS011;21627;48.216;16.482;2024-03-06T13:04:21;32.13;;;19.52;;
35518;SDS011;21627;48.216;16.482;2024-03-06T13:06:48;30.98;;;19.95;;
35518;SDS011;21627;48.216;16.482;2024-03-06T13:09:15;30.58;;;19.10;;
35518;SDS011;21627;48.216;16.482;2024-03-06T13:11:42;31.85;;;17.80;;
35518;SDS011;21627;48.216;16.482;2024-03-06T13:14:10;31.27;;;19.10;;
35518;SDS011;21627;48.216;16.482;2024-03-06T13:16:39;32.15;;;19.13;;
35518;SDS011;21627;48.216;16.482;2024-03-06T13:19:06;32.63;;;18.63;;
35518;SDS011;21627;48.216;16.482;2024-03-06T13:21:34;34.83;;;17.92;;
35518;SDS011;21627;48.216;16.482;2024-03-06T13:24:03;27.92;;;17.25;;
35518;SDS011;21627;48.216;16.482;2024-03-06T13:26:31;33.60;;;20.27;;
35518;SDS011;21627;48.216;16.482;2024-03-06T13:28:58;29.33;;;16.77;;
35518;SDS011;21627;48.216;16.482;2024-03-06T13:31:26;39.03;;;19.70;;
35518;SDS011;21627;48.216;16.482;2024-03-06T13:33:53;31.23;;;19.15;;
35518;SDS011;21627;48.216;16.482;2024-03-06T13:36:20;34.35;;;18.88;;
35518;SDS011;21627;48.216;16.482;2024-03-06T13:38:49;31.23;;;19.73;;
35518;SDS011;21627;48.216;16.482;2024-03-06T13:41:16;35.85;;;18.95;;
35518;SDS011;21627;48.216;16.482;2024-03-06T13:43:43;35.38;;;18.60;;
35518;SDS011;21627;48.216;16.482;2024-03-06T13:46:10;31.60;;;17.50;;
35518;SDS011;21627;48.216;16.482;2024-03-06T13:48:37;33.58;;;16.98;;
35518;SDS011;21627;48.216;16.482;2024-03-06T13:51:05;28.27;;;17.17;;
35518;SDS011;21627;48.216;16.482;2024-03-06T13:53:32;29.50;;;16.70;;
35518;SDS011;21627;48.216;16.482;2024-03-06T13:55:59;30.05;;;17.55;;
35518;SDS011;21627;48.216;16.482;2024-03-06T13:58:26;30.02;;;17.00;;
35518;SDS011;21627;48.216;16.482;2024-03-06T14:00:53;27.15;;;17.40;;
35518;SDS011;21627;48.216;16.482;2024-03-06T14:03:20;39.42;;;19.38;;
35518;SDS011;21627;48.216;16.482;2024-03-06T14:05:48;34.58;;;18.05;;
35518;SDS011;21627;48.216;16.482;2024-03-06T14:08:15;26.95;;;17.65;;
35518;SDS011;21627;48.216;16.482;2024-03-06T14:10:43;30.05;;;18.13;;
35518;SDS011;21627;48.216;16.482;2024-03-06T14:13:12;29.55;;;17.65;;
35518;SDS011;21627;48.216;16.482;2024-03-06T14:15:39;29.02;;;16.35;;
35518;SDS011;21627;48.216;16.482;2024-03-06T14:18:06;28.05;;;17.60;;
35518;SDS011;21627;48.216;16.482;2024-03-06T14:20:34;31.52;;;17.60;;
35518;SDS011;21627;48.216;16.482;2024-03-06T14:23:01;37.67;;;19.15;;
35518;SDS011;21627;48.216;16.482;2024-03-06T14:25:30;37.05;;;17.73;;
35518;SDS011;21627;48.216;16.482;2024-03-06T14:28:01;37.15;;;18.90;;
35518;SDS011;21627;48.216;16.482;2024-03-06T14:30:28;32.17;;;19.40;;
35518;SDS011;21627;48.216;16.482;2024-03-06T14:32:56;34.33;;;19.15;;
35518;SDS011;21627;48.216;16.482;2024-03-06T14:35:23;32.30;;;19.15;;